sensor_id;sensor_type;location;lat;lon;timestamp;pressure;altitude;pressure_sealevel;temperature;humidity
58644;BME280;44411;49.994;8.660;2022-10-16T01:03:35;99813.59;;;14.99;98.40
58644;BME280;44411;49.994;8.660;2022-10-16T01:06:18;99826.97;;;15.01;97.93
58644;BME280;44411;49.994;8.660;2022-10-16T01:11:22;99841.75;;;14.70;98.91
58644;BME280;44411;49.994;8.660;2022-10-16T01:13:55;99843.19;;;14.58;99.76
58644;BME280;44411;49.994;8.660;2022-10-16T01:16:30;99837.81;;;14.53;100.00
58644;BME280;44411;49.994;8.660;2022-10-16T01:19:05;99844.63;;;14.47;99.87
58644;BME280;44411;49.994;8.660;2022-10-16T01:21:43;99849.63;;;14.45;100.00
58644;BME280;44411;49.994;8.660;2022-10-16T01:24:48;99851.41;;;14.41;99.78
58644;BME280;44411;49.994;8.660;2022-10-16T01:30:04;99843.81;;;14.38;99.26
58644;BME280;44411;49.994;8.660;2022-10-16T01:37:46;99842.84;;;14.25;99.74
58644;BME280;44411;49.994;8.660;2022-10-16T01:53:13;99839.09;;;14.04;99.84
58644;BME280;44411;49.994;8.660;2022-10-16T01:55:43;99839.56;;;13.97;99.98
58644;BME280;44411;49.994;8.660;2022-10-16T01:58:11;99844.56;;;13.95;99.92
58644;BME280;44411;49.994;8.660;2022-10-16T02:00:40;99852.16;;;13.98;99.83
58644;BME280;44411;49.994;8.660;2022-10-16T02:03:07;99871.34;;;13.98;99.30
58644;BME280;44411;49.994;8.660;2022-10-16T02:05:54;99863.75;;;13.95;99.76
58644;BME280;44411;49.994;8.660;2022-10-16T02:08:23;99870.06;;;13.95;99.79
58644;BME280;44411;49.994;8.660;2022-10-16T02:10:49;99861.16;;;13.90;99.77
58644;BME280;44411;49.994;8.660;2022-10-16T02:13:26;99866.00;;;13.93;99.75
58644;BME280;44411;49.994;8.660;2022-10-16T02:15:52;99863.75;;;13.95;99.57
58644;BME280;44411;49.994;8.660;2022-10-16T02:18:18;99868.44;;;13.94;99.82
58644;BME280;44411;49.994;8.660;2022-10-16T02:23:58;99863.59;;;14.00;99.80
58644;BME280;44411;49.994;8.660;2022-10-16T02:26:44;99847.78;;;13.97;99.86
58644;BME280;44411;49.994;8.660;2022-10-16T02:29:16;99860.22;;;14.03;100.00
58644;BME280;44411;49.994;8.660;2022-10-16T02:31:46;99857.97;;;14.05;99.86
58644;BME280;44411;49.994;8.660;2022-10-16T02:34:13;99862.50;;;14.10;100.00
58644;BME280;44411;49.994;8.660;2022-10-16T02:36:41;99864.28;;;14.14;99.53
58644;BME280;44411;49.994;8.660;2022-10-16T02:39:07;99863.81;;;14.12;100.00
58644;BME280;44411;49.994;8.660;2022-10-16T02:41:33;99863.34;;;14.19;99.83
58644;BME280;44411;49.994;8.660;2022-10-16T02:43:59;99863.66;;;14.17;99.90
58644;BME280;44411;49.994;8.660;2022-10-16T02:46:24;99863.81;;;14.21;99.76
58644;BME280;44411;49.994;8.660;2022-10-16T02:48:49;99851.38;;;14.15;99.62
58644;BME280;44411;49.994;8.660;2022-10-16T02:51:15;99864.78;;;14.16;99.85
58644;BME280;44411;49.994;8.660;2022-10-16T02:53:40;99860.91;;;14.17;99.97
58644;BME280;44411;49.994;8.660;2022-10-16T02:56:05;99875.13;;;14.19;99.44
58644;BME280;44411;49.994;8.660;2022-10-16T02:58:31;99879.47;;;14.20;99.32
58644;BME280;44411;49.994;8.660;2022-10-16T03:00:56;99883.34;;;14.19;98.98
58644;BME280;44411;49.994;8.660;2022-10-16T03:03:21;99893.19;;;14.20;99.34
58644;BME280;44411;49.994;8.660;2022-10-16T03:05:47;99886.09;;;14.19;99.23
58644;BME280;44411;49.994;8.660;2022-10-16T03:08:13;99889.50;;;14.25;98.80
58644;BME280;44411;49.994;8.660;2022-10-16T03:10:38;99893.69;;;14.23;98.93
58644;BME280;44411;49.994;8.660;2022-10-16T03:13:04;99889.50;;;14.25;98.55
58644;BME280;44411;49.994;8.660;2022-10-16T03:15:29;99883.84;;;14.21;98.83
58644;BME280;44411;49.994;8.660;2022-10-16T03:17:57;99896.44;;;14.23;99.16
58644;BME280;44411;49.994;8.660;2022-10-16T03:20:22;99881.72;;;14.18;98.88
58644;BME280;44411;49.994;8.660;2022-10-16T03:22:48;99887.69;;;14.20;99.32
58644;BME280;44411;49.994;8.660;2022-10-16T03:25:13;99876.88;;;14.24;99.12
58644;BME280;44411;49.994;8.660;2022-10-16T03:27:38;99891.56;;;14.19;99.50
58644;BME280;44411;49.994;8.660;2022-10-16T03:30:04;99894.81;;;14.21;99.56
58644;BME280;44411;49.994;8.660;2022-10-16T03:32:29;99882.72;;;14.23;99.56
58644;BME280;44411;49.994;8.660;2022-10-16T03:34:55;99894.66;;;14.27;99.17
58644;BME280;44411;49.994;8.660;2022-10-16T03:37:21;99898.38;;;14.31;99.56
58644;BME280;44411;49.994;8.660;2022-10-16T03:39:46;99895.16;;;14.29;99.45
58644;BME280;44411;49.994;8.660;2022-10-16T03:42:12;99906.91;;;14.29;99.64
58644;BME280;44411;49.994;8.660;2022-10-16T03:44:37;99907.88;;;14.33;99.01
58644;BME280;44411;49.994;8.660;2022-10-16T03:47:02;99905.50;;;14.32;99.45
58644;BME280;44411;49.994;8.660;2022-10-16T03:49:28;99902.25;;;14.30;99.19
58644;BME280;44411;49.994;8.660;2022-10-16T03:51:53;99903.84;;;14.31;99.42
58644;BME280;44411;49.994;8.660;2022-10-16T03:54:18;99904.34;;;14.33;99.47
58644;BME280;44411;49.994;8.660;2022-10-16T03:56:44;99906.91;;;14.29;99.57
58644;BME280;44411;49.994;8.660;2022-10-16T03:59:09;99904.66;;;14.31;99.51
58644;BME280;44411;49.994;8.660;2022-10-16T04:01:34;99900.63;;;14.29;99.25
58644;BME280;44411;49.994;8.660;2022-10-16T04:04:00;99909.34;;;14.31;99.18
58644;BME280;44411;49.994;8.660;2022-10-16T04:06:25;99915.81;;;14.35;98.65
58644;BME280;44411;49.994;8.660;2022-10-16T04:08:50;99903.22;;;14.34;98.69
58644;BME280;44411;49.994;8.660;2022-10-16T04:11:16;99897.56;;;14.30;99.39
58644;BME280;44411;49.994;8.660;2022-10-16T04:13:41;99885.28;;;14.28;98.91
58644;BME280;44411;49.994;8.660;2022-10-16T04:16:07;99883.84;;;14.21;98.94
58644;BME280;44411;49.994;8.660;2022-10-16T04:18:32;99904.31;;;14.24;98.88
58644;BME280;44411;49.994;8.660;2022-10-16T04:21:05;99912.25;;;14.26;98.47
58644;BME280;44411;49.994;8.660;2022-10-16T04:23:31;99918.22;;;14.28;98.35
58644;BME280;44411;49.994;8.660;2022-10-16T04:25:57;99915.81;;;14.26;98.43
58644;BME280;44411;49.994;8.660;2022-10-16T04:28:22;99925.97;;;14.26;98.56
58644;BME280;44411;49.994;8.660;2022-10-16T04:30:48;99922.91;;;14.27;97.96
58644;BME280;44411;49.994;8.660;2022-10-16T04:33:13;99929.19;;;14.28;98.17
58644;BME280;44411;49.994;8.660;2022-10-16T04:35:38;99923.69;;;14.28;98.26
58644;BME280;44411;49.994;8.660;2022-10-16T04:38:04;99917.25;;;14.24;98.64
58644;BME280;44411;49.994;8.660;2022-10-16T04:40:29;99914.50;;;14.24;98.84
58644;BME280;44411;49.994;8.660;2022-10-16T04:42:58;99908.22;;;14.23;99.24
58644;BME280;44411;49.994;8.660;2022-10-16T04:45:23;99925.00;;;14.21;99.23
58644;BME280;44411;49.994;8.660;2022-10-16T04:47:49;99922.72;;;14.24;99.32
58644;BME280;44411;49.994;8.660;2022-10-16T04:50:14;99911.59;;;14.20;99.29
58644;BME280;44411;49.994;8.660;2022-10-16T04:52:39;99915.13;;;14.20;99.00
58644;BME280;44411;49.994;8.660;2022-10-16T04:55:05;99914.66;;;14.18;99.71
58644;BME280;44411;49.994;8.660;2022-10-16T04:57:31;99907.56;;;14.17;98.93
58644;BME280;44411;49.994;8.660;2022-10-16T04:59:56;99915.31;;;14.15;99.41
58644;BME280;44411;49.994;8.660;2022-10-16T05:02:21;99918.53;;;14.17;100.00
58644;BME280;44411;49.994;8.660;2022-10-16T05:04:47;99923.53;;;14.15;99.94
58644;BME280;44411;49.994;8.660;2022-10-16T05:07:12;99922.69;;;14.15;100.00
58644;BME280;44411;49.994;8.660;2022-10-16T05:09:37;99918.69;;;14.12;100.00
58644;BME280;44411;49.994;8.660;2022-10-16T05:12:03;99917.53;;;14.13;100.00
58644;BME280;44411;49.994;8.660;2022-10-16T05:14:29;99920.28;;;14.13;100.00
58644;BME280;44411;49.994;8.660;2022-10-16T05:16:54;99924.66;;;14.14;100.00
58644;BME280;44411;49.994;8.660;2022-10-16T05:19:19;99936.91;;;14.17;100.00
58644;BME280;44411;49.994;8.660;2022-10-16T05:21:45;99936.09;;;14.16;100.00
58644;BME280;44411;49.994;8.660;2022-10-16T05:24:10;99932.25;;;14.17;100.00
58644;BME280;44411;49.994;8.660;2022-10-16T05:26:35;99927.56;;;14.18;100.00
58644;BME280;44411;49.994;8.660;2022-10-16T05:29:00;99929.03;;;14.15;100.00
58644;BME280;44411;49.994;8.660;2022-10-16T05:31:26;99933.22;;;14.21;100.00
58644;BME280;44411;49.994;8.660;2022-10-16T05:33:51;99931.59;;;14.20;100.00
58644;BME280;44411;49.994;8.660;2022-10-16T05:36:16;99926.75;;;14.17;100.00
58644;BME280;44411;49.994;8.660;2022-10-16T05:38:43;99923.19;;;14.17;100.00
58644;BME280;44411;49.994;8.660;2022-10-16T05:41:08;99920.44;;;14.17;100.00
58644;BME280;44411;49.994;8.660;2022-10-16T05:43:34;99916.41;;;14.14;100.00
58644;BME280;44411;49.994;8.660;2022-10-16T05:46:00;99916.25;;;14.11;100.00
58644;BME280;44411;49.994;8.660;2022-10-16T05:48:26;99928.69;;;14.08;100.00
58644;BME280;44411;49.994;8.660;2022-10-16T05:51:00;99938.50;;;14.09;100.00
58644;BME280;44411;49.994;8.660;2022-10-16T05:53:53;99939.47;;;14.13;100.00
58644;BME280;44411;49.994;8.660;2022-10-16T05:56:18;99944.47;;;14.11;100.00
58644;BME280;44411;49.994;8.660;2022-10-16T05:58:43;99944.31;;;14.08;100.00
58644;BME280;44411;49.994;8.660;2022-10-16T06:01:14;99951.44;;;14.09;100.00
58644;BME280;44411;49.994;8.660;2022-10-16T06:03:40;99971.44;;;14.09;100.00
58644;BME280;44411;49.994;8.660;2022-10-16T06:06:13;99969.66;;;14.13;100.00
58644;BME280;44411;49.994;8.660;2022-10-16T06:08:40;99964.19;;;14.13;100.00
58644;BME280;44411;49.994;8.660;2022-10-16T06:11:11;99972.91;;;14.15;100.00
58644;BME280;44411;49.994;8.660;2022-10-16T06:13:36;99978.41;;;14.15;100.00
58644;BME280;44411;49.994;8.660;2022-10-16T06:16:02;99982.44;;;14.18;100.00
58644;BME280;44411;49.994;8.660;2022-10-16T06:18:28;99987.31;;;14.21;100.00
58644;BME280;44411;49.994;8.660;2022-10-16T06:20:57;99991.97;;;14.20;100.00
58644;BME280;44411;49.994;8.660;2022-10-16T06:23:24;99984.56;;;14.21;100.00
58644;BME280;44411;49.994;8.660;2022-10-16T06:25:49;99992.97;;;14.25;100.00
58644;BME280;44411;49.994;8.660;2022-10-16T06:28:15;99990.72;;;14.27;100.00
58644;BME280;44411;49.994;8.660;2022-10-16T06:30:41;100000.53;;;14.28;100.00
58644;BME280;44411;49.994;8.660;2022-10-16T06:33:09;99991.19;;;14.29;100.00
58644;BME280;44411;49.994;8.660;2022-10-16T06:35:35;99996.69;;;14.29;100.00
58644;BME280;44411;49.994;8.660;2022-10-16T06:38:00;99994.44;;;14.31;100.00
58644;BME280;44411;49.994;8.660;2022-10-16T06:40:26;100003.16;;;14.33;100.00
58644;BME280;44411;49.994;8.660;2022-10-16T06:42:51;99997.97;;;14.31;100.00
58644;BME280;44411;49.994;8.660;2022-10-16T06:45:19;99990.88;;;14.30;100.00
58644;BME280;44411;49.994;8.660;2022-10-16T06:47:44;99987.81;;;14.32;100.00
58644;BME280;44411;49.994;8.660;2022-10-16T06:50:10;99987.81;;;14.32;100.00
58644;BME280;44411;49.994;8.660;2022-10-16T06:52:38;99985.56;;;14.34;100.00
58644;BME280;44411;49.994;8.660;2022-10-16T06:55:03;99980.06;;;14.34;100.00
58644;BME280;44411;49.994;8.660;2022-10-16T06:57:29;99986.06;;;14.36;100.00
58644;BME280;44411;49.994;8.660;2022-10-16T06:59:54;100001.25;;;14.42;100.00
58644;BME280;44411;49.994;8.660;2022-10-16T07:02:19;100004.16;;;14.46;100.00
58644;BME280;44411;49.994;8.660;2022-10-16T07:04:45;100007.22;;;14.44;100.00
58644;BME280;44411;49.994;8.660;2022-10-16T07:07:10;100009.00;;;14.49;100.00
58644;BME280;44411;49.994;8.660;2022-10-16T07:09:35;100017.75;;;14.51;100.00
58644;BME280;44411;49.994;8.660;2022-10-16T07:12:03;100014.84;;;14.56;100.00
58644;BME280;44411;49.994;8.660;2022-10-16T07:14:29;100029.09;;;14.58;100.00
58644;BME280;44411;49.994;8.660;2022-10-16T07:16:55;100030.53;;;14.55;100.00
58644;BME280;44411;49.994;8.660;2022-10-16T07:19:20;100038.41;;;14.57;100.00
58644;BME280;44411;49.994;8.660;2022-10-16T07:21:46;100032.94;;;14.57;100.00
58644;BME280;44411;49.994;8.660;2022-10-16T07:24:15;100037.34;;;14.58;100.00
58644;BME280;44411;49.994;8.660;2022-10-16T07:26:42;100038.41;;;14.57;100.00
58644;BME280;44411;49.994;8.660;2022-10-16T07:29:16;100044.56;;;14.54;100.00
58644;BME280;44411;49.994;8.660;2022-10-16T07:31:42;100062.47;;;14.51;100.00
58644;BME280;44411;49.994;8.660;2022-10-16T07:34:08;100067.16;;;14.51;100.00
58644;BME280;44411;49.994;8.660;2022-10-16T07:36:33;100064.72;;;14.49;100.00
58644;BME280;44411;49.994;8.660;2022-10-16T07:38:59;100067.78;;;14.48;100.00
58644;BME280;44411;49.994;8.660;2022-10-16T07:41:25;100063.75;;;14.45;100.00
58644;BME280;44411;49.994;8.660;2022-10-16T07:43:52;100081.03;;;14.46;100.00
58644;BME280;44411;49.994;8.660;2022-10-16T07:46:19;100074.41;;;14.47;100.00
58644;BME280;44411;49.994;8.660;2022-10-16T07:48:44;100065.03;;;14.48;100.00
58644;BME280;44411;49.994;8.660;2022-10-16T07:51:16;100062.81;;;14.50;100.00
58644;BME280;44411;49.994;8.660;2022-10-16T07:53:42;100061.34;;;14.52;100.00
58644;BME280;44411;49.994;8.660;2022-10-16T07:56:08;100064.00;;;14.57;100.00
58644;BME280;44411;49.994;8.660;2022-10-16T07:58:34;100069.75;;;14.56;100.00
58644;BME280;44411;49.994;8.660;2022-10-16T08:01:13;100083.00;;;14.54;100.00
58644;BME280;44411;49.994;8.660;2022-10-16T08:03:42;100079.94;;;14.55;100.00
58644;BME280;44411;49.994;8.660;2022-10-16T08:06:07;100079.28;;;14.50;100.00
58644;BME280;44411;49.994;8.660;2022-10-16T08:08:32;100099.16;;;14.55;100.00
58644;BME280;44411;49.994;8.660;2022-10-16T08:10:58;100094.78;;;14.54;100.00
58644;BME280;44411;49.994;8.660;2022-10-16T08:13:23;100106.56;;;14.55;100.00
58644;BME280;44411;49.994;8.660;2022-10-16T08:15:49;100099.47;;;14.54;100.00
58644;BME280;44411;49.994;8.660;2022-10-16T08:18:15;100113.09;;;14.59;100.00
58644;BME280;44411;49.994;8.660;2022-10-16T08:20:41;100103.41;;;14.62;100.00
58644;BME280;44411;49.994;8.660;2022-10-16T08:23:07;100107.44;;;14.64;100.00
58644;BME280;44411;49.994;8.660;2022-10-16T08:25:35;100112.63;;;14.66;100.00
58644;BME280;44411;49.994;8.660;2022-10-16T08:28:08;100122.00;;;14.65;100.00
58644;BME280;44411;49.994;8.660;2022-10-16T08:30:34;100130.56;;;14.63;100.00
58644;BME280;44411;49.994;8.660;2022-10-16T08:33:00;100137.34;;;14.66;100.00
58644;BME280;44411;49.994;8.660;2022-10-16T08:35:26;100145.41;;;14.62;100.00
58644;BME280;44411;49.994;8.660;2022-10-16T08:37:51;100150.25;;;14.65;100.00
58644;BME280;44411;49.994;8.660;2022-10-16T08:40:24;100149.47;;;14.65;100.00
58644;BME280;44411;49.994;8.660;2022-10-16T08:43:21;100156.56;;;14.66;100.00
58644;BME280;44411;49.994;8.660;2022-10-16T08:48:45;100172.53;;;14.64;100.00
58644;BME280;44411;49.994;8.660;2022-10-16T08:51:23;100171.94;;;14.67;100.00
58644;BME280;44411;49.994;8.660;2022-10-16T08:53:53;100170.78;;;14.68;100.00
58644;BME280;44411;49.994;8.660;2022-10-16T08:56:20;100158.91;;;14.81;100.00
58644;BME280;44411;49.994;8.660;2022-10-16T08:58:46;100172.63;;;14.81;100.00
58644;BME280;44411;49.994;8.660;2022-10-16T09:01:15;100170.06;;;14.85;100.00
58644;BME280;44411;49.994;8.660;2022-10-16T09:06:40;100175.06;;;14.91;100.00
58644;BME280;44411;49.994;8.660;2022-10-16T09:09:41;100179.78;;;14.91;100.00
58644;BME280;44411;49.994;8.660;2022-10-16T09:12:21;100178.97;;;14.90;100.00
58644;BME280;44411;49.994;8.660;2022-10-16T09:22:41;100196.16;;;15.05;100.00
58644;BME280;44411;49.994;8.660;2022-10-16T09:25:15;100205.88;;;15.11;100.00
58644;BME280;44411;49.994;8.660;2022-10-16T09:27:44;100215.56;;;15.17;100.00
58644;BME280;44411;49.994;8.660;2022-10-16T09:30:18;100214.78;;;15.16;100.00
58644;BME280;44411;49.994;8.660;2022-10-16T09:32:47;100223.34;;;15.24;100.00
58644;BME280;44411;49.994;8.660;2022-10-16T09:35:16;100223.31;;;15.15;100.00
58644;BME280;44411;49.994;8.660;2022-10-16T09:37:44;100221.59;;;15.19;100.00
58644;BME280;44411;49.994;8.660;2022-10-16T09:40:25;100224.81;;;15.21;100.00
58644;BME280;44411;49.994;8.660;2022-10-16T09:42:56;100225.47;;;15.27;100.00
58644;BME280;44411;49.994;8.660;2022-10-16T09:45:23;100222.59;;;15.32;100.00
58644;BME280;44411;49.994;8.660;2022-10-16T09:47:49;100221.16;;;15.43;100.00
58644;BME280;44411;49.994;8.660;2022-10-16T09:50:27;100231.34;;;15.43;100.00
58644;BME280;44411;49.994;8.660;2022-10-16T09:53:04;100233.28;;;15.42;100.00
58644;BME280;44411;49.994;8.660;2022-10-16T09:55:29;100239.63;;;15.60;100.00
58644;BME280;44411;49.994;8.660;2022-10-16T09:57:55;100235.31;;;15.77;100.00
58644;BME280;44411;49.994;8.660;2022-10-16T10:00:21;100239.50;;;15.91;100.00
58644;BME280;44411;49.994;8.660;2022-10-16T10:02:47;100236.78;;;16.26;100.00
58644;BME280;44411;49.994;8.660;2022-10-16T10:05:22;100237.09;;;16.25;100.00
58644;BME280;44411;49.994;8.660;2022-10-16T10:07:57;100247.00;;;16.17;99.96
58644;BME280;44411;49.994;8.660;2022-10-16T10:10:25;100235.81;;;15.96;99.83
58644;BME280;44411;49.994;8.660;2022-10-16T10:12:52;100241.94;;;15.93;100.00
58644;BME280;44411;49.994;8.660;2022-10-16T10:15:18;100237.72;;;15.78;100.00
58644;BME280;44411;49.994;8.660;2022-10-16T10:17:56;100245.03;;;15.83;100.00
58644;BME280;44411;49.994;8.660;2022-10-16T10:20:28;100256.22;;;15.86;100.00
58644;BME280;44411;49.994;8.660;2022-10-16T10:22:55;100243.72;;;15.89;100.00
58644;BME280;44411;49.994;8.660;2022-10-16T10:25:46;100249.41;;;16.01;100.00
58644;BME280;44411;49.994;8.660;2022-10-16T10:31:07;100235.34;;;16.03;99.56
58644;BME280;44411;49.994;8.660;2022-10-16T10:46:35;100248.75;;;16.30;99.11
58644;BME280;44411;49.994;8.660;2022-10-16T10:55:06;100223.34;;;16.25;98.70
58644;BME280;44411;49.994;8.660;2022-10-16T11:03:13;100228.47;;;16.53;99.39
58644;BME280;44411;49.994;8.660;2022-10-16T11:08:45;100224.22;;;16.64;96.94
58644;BME280;44411;49.994;8.660;2022-10-16T11:13:55;100227.75;;;16.73;93.79
58644;BME280;44411;49.994;8.660;2022-10-16T11:16:28;100240.88;;;16.76;93.49
58644;BME280;44411;49.994;8.660;2022-10-16T11:19:46;100237.94;;;16.81;94.52
58644;BME280;44411;49.994;8.660;2022-10-16T11:25:34;100240.97;;;17.06;93.36
58644;BME280;44411;49.994;8.660;2022-10-16T11:27:42;100239.06;;;17.27;93.19
58644;BME280;44411;49.994;8.660;2022-10-16T11:30:21;100239.28;;;17.52;92.78
58644;BME280;44411;49.994;8.660;2022-10-16T11:35:46;100230.53;;;17.71;92.38
58644;BME280;44411;49.994;8.660;2022-10-16T11:41:32;100243.44;;;17.37;89.28
58644;BME280;44411;49.994;8.660;2022-10-16T11:47:26;100230.78;;;17.87;91.25
58644;BME280;44411;49.994;8.660;2022-10-16T11:49:58;100236.38;;;17.99;91.23
58644;BME280;44411;49.994;8.660;2022-10-16T11:57:47;100237.53;;;17.69;89.04
58644;BME280;44411;49.994;8.660;2022-10-16T12:00:30;100222.03;;;17.85;88.37
58644;BME280;44411;49.994;8.660;2022-10-16T12:06:01;100215.69;;;18.06;86.40
58644;BME280;44411;49.994;8.660;2022-10-16T12:08:30;100209.38;;;18.38;84.23
58644;BME280;44411;49.994;8.660;2022-10-16T12:11:09;100212.41;;;17.91;84.41
58644;BME280;44411;49.994;8.660;2022-10-16T12:13:45;100214.91;;;17.75;88.04
58644;BME280;44411;49.994;8.660;2022-10-16T12:18:43;100223.91;;;18.14;86.28
58644;BME280;44411;49.994;8.660;2022-10-16T12:21:10;100222.41;;;18.50;84.02
58644;BME280;44411;49.994;8.660;2022-10-16T12:23:47;100222.66;;;19.03;81.89
58644;BME280;44411;49.994;8.660;2022-10-16T12:26:13;100208.72;;;19.12;79.21
58644;BME280;44411;49.994;8.660;2022-10-16T12:28:39;100213.53;;;19.27;81.17
58644;BME280;44411;49.994;8.660;2022-10-16T12:31:07;100211.81;;;19.35;82.66
58644;BME280;44411;49.994;8.660;2022-10-16T12:33:41;100219.78;;;18.99;80.18
58644;BME280;44411;49.994;8.660;2022-10-16T12:36:15;100219.88;;;19.15;78.66
58644;BME280;44411;49.994;8.660;2022-10-16T12:38:48;100228.41;;;19.35;78.32
58644;BME280;44411;49.994;8.660;2022-10-16T12:41:25;100229.00;;;19.16;78.07
58644;BME280;44411;49.994;8.660;2022-10-16T12:43:51;100234.81;;;18.77;82.58
58644;BME280;44411;49.994;8.660;2022-10-16T12:48:43;100233.22;;;18.55;80.60
58644;BME280;44411;49.994;8.660;2022-10-16T12:54:14;100238.63;;;18.39;81.87
58644;BME280;44411;49.994;8.660;2022-10-16T13:05:12;100237.16;;;18.21;82.98
58644;BME280;44411;49.994;8.660;2022-10-16T13:10:17;100227.06;;;18.25;83.37
58644;BME280;44411;49.994;8.660;2022-10-16T13:16:04;100242.25;;;18.31;83.22
58644;BME280;44411;49.994;8.660;2022-10-16T13:21:23;100246.59;;;18.20;84.38
58644;BME280;44411;49.994;8.660;2022-10-16T13:27:01;100244.63;;;18.20;84.84
58644;BME280;44411;49.994;8.660;2022-10-16T13:29:32;100234.03;;;18.22;83.91
58644;BME280;44411;49.994;8.660;2022-10-16T13:31:59;100231.91;;;18.28;83.10
58644;BME280;44411;49.994;8.660;2022-10-16T13:34:26;100229.47;;;18.27;83.33
58644;BME280;44411;49.994;8.660;2022-10-16T13:36:53;100233.75;;;18.36;82.49
58644;BME280;44411;49.994;8.660;2022-10-16T13:39:27;100240.47;;;18.48;83.40
58644;BME280;44411;49.994;8.660;2022-10-16T13:42:15;100245.66;;;18.49;82.44
58644;BME280;44411;49.994;8.660;2022-10-16T13:44:46;100243.44;;;18.42;82.16
58644;BME280;44411;49.994;8.660;2022-10-16T13:47:19;100237.91;;;18.42;83.08
58644;BME280;44411;49.994;8.660;2022-10-16T13:49:46;100234.94;;;18.48;83.45
58644;BME280;44411;49.994;8.660;2022-10-16T13:52:17;100242.06;;;18.36;83.33
58644;BME280;44411;49.994;8.660;2022-10-16T13:54:43;100236.78;;;18.44;82.60
58644;BME280;44411;49.994;8.660;2022-10-16T13:57:08;100246.91;;;18.39;83.50
58644;BME280;44411;49.994;8.660;2022-10-16T13:59:35;100244.69;;;18.33;81.32
58644;BME280;44411;49.994;8.660;2022-10-16T14:02:08;100248.94;;;18.30;82.16
58644;BME280;44411;49.994;8.660;2022-10-16T14:04:40;100244.56;;;18.29;82.84
58644;BME280;44411;49.994;8.660;2022-10-16T14:07:05;100247.53;;;18.24;83.74
58644;BME280;44411;49.994;8.660;2022-10-16T14:09:31;100234.63;;;18.16;86.07
58644;BME280;44411;49.994;8.660;2022-10-16T14:12:01;100237.84;;;18.18;85.35
58644;BME280;44411;49.994;8.660;2022-10-16T14:17:13;100222.59;;;18.12;85.40
58644;BME280;44411;49.994;8.660;2022-10-16T14:19:38;100211.03;;;18.18;85.35
58644;BME280;44411;49.994;8.660;2022-10-16T14:24:45;100211.81;;;18.19;85.61
58644;BME280;44411;49.994;8.660;2022-10-16T14:27:34;100224.28;;;18.25;85.95
58644;BME280;44411;49.994;8.660;2022-10-16T14:30:21;100223.38;;;18.33;86.44
58644;BME280;44411;49.994;8.660;2022-10-16T14:33:04;100233.47;;;18.50;84.97
58644;BME280;44411;49.994;8.660;2022-10-16T14:35:35;100239.38;;;18.61;85.97
58644;BME280;44411;49.994;8.660;2022-10-16T14:38:03;100246.03;;;18.60;84.73
58644;BME280;44411;49.994;8.660;2022-10-16T14:40:32;100242.38;;;18.68;84.62
58644;BME280;44411;49.994;8.660;2022-10-16T14:42:59;100241.34;;;18.73;83.99
58644;BME280;44411;49.994;8.660;2022-10-16T14:45:28;100253.78;;;18.67;83.79
58644;BME280;44411;49.994;8.660;2022-10-16T14:47:57;100253.44;;;18.68;84.19
58644;BME280;44411;49.994;8.660;2022-10-16T14:50:23;100244.78;;;18.70;83.77
58644;BME280;44411;49.994;8.660;2022-10-16T14:52:48;100243.06;;;18.65;84.06
58644;BME280;44411;49.994;8.660;2022-10-16T14:55:14;100239.38;;;18.61;85.06
58644;BME280;44411;49.994;8.660;2022-10-16T14:57:40;100243.63;;;18.58;85.32
58644;BME280;44411;49.994;8.660;2022-10-16T15:00:16;100241.66;;;18.59;84.43
58644;BME280;44411;49.994;8.660;2022-10-16T15:02:42;100243.81;;;18.53;86.10
58644;BME280;44411;49.994;8.660;2022-10-16T15:05:19;100235.88;;;18.52;86.03
58644;BME280;44411;49.994;8.660;2022-10-16T15:07:45;100237.03;;;18.51;85.98
58644;BME280;44411;49.994;8.660;2022-10-16T15:10:12;100239.59;;;18.56;85.40
58644;BME280;44411;49.994;8.660;2022-10-16T15:12:38;100230.13;;;18.57;84.62
58644;BME280;44411;49.994;8.660;2022-10-16T15:15:35;100243.28;;;18.60;85.75
58644;BME280;44411;49.994;8.660;2022-10-16T15:18:02;100241.44;;;18.64;85.76
58644;BME280;44411;49.994;8.660;2022-10-16T15:20:33;100244.19;;;18.64;86.07
58644;BME280;44411;49.994;8.660;2022-10-16T15:23:05;100249.38;;;18.66;86.97
58644;BME280;44411;49.994;8.660;2022-10-16T15:28:01;100246.53;;;18.74;85.49
58644;BME280;44411;49.994;8.660;2022-10-16T15:30:27;100243.78;;;18.74;86.87
58644;BME280;44411;49.994;8.660;2022-10-16T15:32:53;100252.16;;;18.66;85.91
58644;BME280;44411;49.994;8.660;2022-10-16T15:35:19;100250.44;;;18.61;86.84
58644;BME280;44411;49.994;8.660;2022-10-16T15:37:48;100244.06;;;18.60;85.94
58644;BME280;44411;49.994;8.660;2022-10-16T15:40:15;100249.47;;;18.57;86.43
58644;BME280;44411;49.994;8.660;2022-10-16T15:42:40;100251.78;;;18.55;87.08
58644;BME280;44411;49.994;8.660;2022-10-16T15:45:06;100259.13;;;18.51;87.09
58644;BME280;44411;49.994;8.660;2022-10-16T15:47:32;100258.88;;;18.44;86.81
58644;BME280;44411;49.994;8.660;2022-10-16T15:49:58;100268.28;;;18.30;85.82
58644;BME280;44411;49.994;8.660;2022-10-16T15:52:23;100274.34;;;18.23;85.76
58644;BME280;44411;49.994;8.660;2022-10-16T15:54:49;100271.66;;;18.15;87.49
58644;BME280;44411;49.994;8.660;2022-10-16T15:57:14;100265.38;;;18.06;88.78
58644;BME280;44411;49.994;8.660;2022-10-16T15:59:39;100265.31;;;17.93;88.41
58644;BME280;44411;49.994;8.660;2022-10-16T16:02:05;100275.56;;;17.93;87.87
58644;BME280;44411;49.994;8.660;2022-10-16T16:04:30;100274.47;;;17.85;89.55
58644;BME280;44411;49.994;8.660;2022-10-16T16:06:56;100280.63;;;17.82;88.54
58644;BME280;44411;49.994;8.660;2022-10-16T16:09:21;100272.72;;;17.72;89.75
58644;BME280;44411;49.994;8.660;2022-10-16T16:11:47;100267.44;;;17.67;90.01